createdAt,value
2018-10-17T00:01:35.881Z,11.10
2018-10-17T00:04:05.326Z,11.20
2018-10-17T00:06:34.457Z,11.10
2018-10-17T00:09:03.705Z,11.10
2018-10-17T00:11:32.750Z,11.10
2018-10-17T00:14:01.729Z,11.10
2018-10-17T00:16:30.804Z,11.10
2018-10-17T00:18:59.909Z,11.10
2018-10-17T00:21:29.252Z,11.10
2018-10-17T00:23:58.321Z,11.10
2018-10-17T00:26:27.593Z,10.90
2018-10-17T00:28:56.716Z,11.00
2018-10-17T00:31:25.828Z,11.00
2018-10-17T00:33:54.932Z,11.00
2018-10-17T00:36:23.985Z,10.90
2018-10-17T00:38:53.015Z,10.70
2018-10-17T00:41:22.088Z,10.80
2018-10-17T00:43:51.180Z,10.70
2018-10-17T00:46:20.419Z,10.70
2018-10-17T00:48:49.566Z,10.70
2018-10-17T00:51:18.671Z,10.70
2018-10-17T00:53:47.760Z,10.60
2018-10-17T00:56:16.853Z,10.60
2018-10-17T00:58:57.174Z,10.70
2018-10-17T01:01:26.412Z,10.70
2018-10-17T01:03:55.484Z,10.60
2018-10-17T01:06:24.700Z,10.60
2018-10-17T01:08:53.793Z,10.70
2018-10-17T01:11:22.912Z,10.70
2018-10-17T01:13:51.980Z,10.70
2018-10-17T01:16:21.072Z,10.50
2018-10-17T01:18:50.188Z,10.40
2018-10-17T01:21:19.372Z,10.10
2018-10-17T01:23:48.501Z,10.10
2018-10-17T01:26:17.472Z,10.10
2018-10-17T01:28:46.557Z,10.30
2018-10-17T01:31:15.701Z,9.90
2018-10-17T01:33:44.742Z,9.90
2018-10-17T01:36:13.752Z,9.80
2018-10-17T01:38:42.721Z,10.00
2018-10-17T01:41:11.817Z,9.90
2018-10-17T01:43:40.716Z,10.10
2018-10-17T01:46:09.827Z,10.00
2018-10-17T01:48:38.854Z,10.10
2018-10-17T01:51:08.002Z,10.10
2018-10-17T01:53:37.000Z,10.10
2018-10-17T01:56:06.356Z,10.10
2018-10-17T01:58:35.380Z,9.70
2018-10-17T02:01:04.639Z,9.60
2018-10-17T02:03:33.676Z,9.60
2018-10-17T02:06:02.643Z,9.70
2018-10-17T02:08:31.632Z,9.90
2018-10-17T02:11:00.800Z,9.80
2018-10-17T02:13:29.838Z,9.90
2018-10-17T02:15:58.943Z,9.80
2018-10-17T02:18:28.072Z,9.80
2018-10-17T02:20:57.140Z,9.80
2018-10-17T02:23:26.223Z,9.70
2018-10-17T02:25:55.320Z,9.70
2018-10-17T02:28:24.524Z,9.60
2018-10-17T02:30:53.700Z,9.50
2018-10-17T02:33:22.711Z,9.20
2018-10-17T02:35:51.801Z,9.20
2018-10-17T02:38:20.907Z,9.20
2018-10-17T02:40:49.991Z,9.30
2018-10-17T02:43:19.192Z,9.30
2018-10-17T02:45:48.391Z,9.40
2018-10-17T02:48:17.483Z,9.30
2018-10-17T02:50:46.584Z,9.40
2018-10-17T02:53:15.633Z,9.40
2018-10-17T02:55:44.604Z,9.20
2018-10-17T02:58:13.678Z,9.30
2018-10-17T03:00:42.761Z,9.40
2018-10-17T03:03:11.742Z,9.40
2018-10-17T03:05:40.763Z,9.40
2018-10-17T03:08:09.747Z,9.50
2018-10-17T03:10:38.746Z,9.50
2018-10-17T03:13:07.815Z,9.50
2018-10-17T03:15:36.813Z,9.40
2018-10-17T03:18:05.940Z,9.40
2018-10-17T03:20:35.046Z,9.40
2018-10-17T03:23:04.184Z,9.30
2018-10-17T03:25:33.176Z,9.10
2018-10-17T03:28:02.423Z,9.00
2018-10-17T03:30:31.497Z,8.90
2018-10-17T03:33:00.516Z,8.80
2018-10-17T03:35:29.582Z,9.00
2018-10-17T03:37:58.661Z,9.10
2018-10-17T03:40:27.696Z,9.10
2018-10-17T03:42:56.772Z,9.00
2018-10-17T03:45:25.904Z,9.10
2018-10-17T03:47:54.932Z,9.20
2018-10-17T03:50:24.046Z,9.20
2018-10-17T03:52:53.135Z,9.20
2018-10-17T03:55:22.233Z,9.20
2018-10-17T03:57:51.280Z,9.20
2018-10-17T04:00:20.460Z,9.20
2018-10-17T04:02:49.286Z,9.20
2018-10-17T04:05:18.146Z,9.10
2018-10-17T04:07:46.930Z,9.10
2018-10-17T04:10:15.776Z,9.00
2018-10-17T04:12:44.556Z,8.70
2018-10-17T04:15:13.401Z,8.70
2018-10-17T04:17:42.196Z,8.60
2018-10-17T04:20:11.323Z,8.70
2018-10-17T04:22:44.531Z,8.70
2018-10-17T04:25:13.797Z,8.40
2018-10-17T04:27:42.932Z,8.40
2018-10-17T04:30:12.012Z,8.30
2018-10-17T04:32:41.183Z,8.40
2018-10-17T04:35:10.376Z,8.30
2018-10-17T04:37:39.485Z,8.40
2018-10-17T04:40:08.600Z,8.50
2018-10-17T04:42:37.689Z,8.70
2018-10-17T04:45:08.443Z,8.60
2018-10-17T04:47:37.627Z,8.50
2018-10-17T04:50:07.924Z,8.60
2018-10-17T04:52:36.976Z,8.50
2018-10-17T04:55:07.384Z,8.50
2018-10-17T04:57:36.440Z,8.50
2018-10-17T05:00:08.614Z,8.50
2018-10-17T05:02:37.453Z,8.50
2018-10-17T05:05:06.803Z,8.60
2018-10-17T05:07:35.916Z,8.70
2018-10-17T05:10:05.038Z,8.80
2018-10-17T05:12:34.077Z,8.90
2018-10-17T05:15:03.330Z,8.90
2018-10-17T05:17:32.519Z,9.00
2018-10-17T05:20:01.585Z,9.00
2018-10-17T05:22:30.672Z,9.10
2018-10-17T05:24:59.835Z,9.10
2018-10-17T05:27:28.955Z,9.00
2018-10-17T05:29:58.178Z,9.00
2018-10-17T05:32:27.255Z,9.00
2018-10-17T05:34:56.358Z,9.10
2018-10-17T05:37:25.371Z,9.10
2018-10-17T05:39:54.429Z,9.10
2018-10-17T05:42:23.541Z,9.10
2018-10-17T05:44:52.509Z,9.10
2018-10-17T05:47:21.560Z,9.10
2018-10-17T05:49:50.707Z,9.10
2018-10-17T05:52:19.712Z,9.10
2018-10-17T05:54:48.937Z,9.00
2018-10-17T05:57:18.120Z,9.00
2018-10-17T05:59:47.220Z,8.90
2018-10-17T06:02:19.847Z,9.00
2018-10-17T06:04:49.079Z,8.90
2018-10-17T06:07:18.305Z,9.00
2018-10-17T06:09:47.380Z,9.10
2018-10-17T06:12:16.752Z,9.00
2018-10-17T06:14:45.865Z,9.10
2018-10-17T06:17:14.916Z,9.00
2018-10-17T06:19:43.976Z,9.00
2018-10-17T06:22:13.058Z,9.00
2018-10-17T06:24:42.162Z,9.10
2018-10-17T06:27:11.336Z,9.10
2018-10-17T06:29:40.553Z,9.10
2018-10-17T06:32:09.668Z,9.20
2018-10-17T06:34:38.740Z,9.20
2018-10-17T06:37:08.083Z,9.10
2018-10-17T06:39:37.207Z,9.20
2018-10-17T06:42:06.707Z,9.10
2018-10-17T06:44:35.868Z,9.10
2018-10-17T06:47:05.073Z,9.20
2018-10-17T06:49:34.127Z,9.30
2018-10-17T06:52:03.317Z,9.30
2018-10-17T06:54:33.138Z,9.20
2018-10-17T06:57:02.279Z,9.30
2018-10-17T06:59:31.415Z,9.20
2018-10-17T07:02:00.777Z,9.20
2018-10-17T07:04:29.599Z,9.30
2018-10-17T07:06:58.632Z,9.30
2018-10-17T07:09:27.844Z,9.30
2018-10-17T07:11:57.112Z,9.30
2018-10-17T07:14:28.992Z,9.30
2018-10-17T07:16:59.067Z,9.30
2018-10-17T07:19:28.080Z,9.30
2018-10-17T07:21:57.320Z,9.40
2018-10-17T07:24:26.452Z,9.40
2018-10-17T07:26:55.570Z,9.40
2018-10-17T07:29:24.858Z,9.40
2018-10-17T07:31:53.822Z,9.40
2018-10-17T07:34:23.059Z,9.50
2018-10-17T07:36:52.145Z,9.40
2018-10-17T07:39:21.356Z,9.50
2018-10-17T07:41:50.293Z,9.60
2018-10-17T07:44:19.415Z,9.50
2018-10-17T07:46:48.513Z,9.60
2018-10-17T07:49:17.626Z,9.50
2018-10-17T07:51:46.744Z,9.60
2018-10-17T07:54:16.064Z,9.60
2018-10-17T07:56:45.111Z,9.60
2018-10-17T07:59:14.192Z,9.60
2018-10-17T08:01:43.340Z,9.60
2018-10-17T08:04:12.511Z,9.70
2018-10-17T08:06:41.898Z,9.70
2018-10-17T08:09:11.564Z,9.70
2018-10-17T08:11:41.044Z,9.70
2018-10-17T08:14:10.169Z,9.70
2018-10-17T08:16:39.185Z,9.70
2018-10-17T08:19:07.992Z,9.70
2018-10-17T08:21:36.971Z,9.80
2018-10-17T08:24:06.111Z,9.80
2018-10-17T08:26:34.891Z,9.80
2018-10-17T08:29:04.079Z,9.80
2018-10-17T08:31:33.038Z,9.80
2018-10-17T08:34:02.137Z,9.90
2018-10-17T08:36:31.607Z,9.90
2018-10-17T08:39:00.520Z,10.00
2018-10-17T08:41:29.679Z,10.00
2018-10-17T08:43:58.888Z,10.10
2018-10-17T08:46:28.237Z,10.10
2018-10-17T08:48:57.313Z,10.10
2018-10-17T08:51:26.338Z,10.10
2018-10-17T08:53:55.728Z,10.10
2018-10-17T08:56:24.862Z,10.20
2018-10-17T08:58:53.995Z,10.20
2018-10-17T09:01:23.214Z,10.10
2018-10-17T09:03:52.271Z,10.20
2018-10-17T09:06:21.549Z,10.20
2018-10-17T09:08:50.691Z,10.30
2018-10-17T09:11:19.896Z,10.30
2018-10-17T09:13:48.777Z,10.30
2018-10-17T09:16:17.998Z,10.40
2018-10-17T09:18:47.099Z,10.40
2018-10-17T09:21:16.332Z,10.40
2018-10-17T09:23:44.988Z,10.40
2018-10-17T09:26:14.041Z,10.40
2018-10-17T09:28:42.945Z,10.50
2018-10-17T09:31:12.028Z,10.50
2018-10-17T09:33:41.041Z,10.40
2018-10-17T09:36:10.184Z,10.50
2018-10-17T09:38:39.293Z,10.50
2018-10-17T09:41:08.537Z,10.50
2018-10-17T09:43:37.660Z,10.50
2018-10-17T09:46:06.827Z,10.50
2018-10-17T09:48:35.818Z,10.50
2018-10-17T09:51:04.884Z,10.50
2018-10-17T09:53:33.995Z,10.50
2018-10-17T09:56:03.103Z,10.50
2018-10-17T09:58:32.179Z,10.60
2018-10-17T10:01:06.328Z,10.70
2018-10-17T10:03:35.472Z,10.70
2018-10-17T10:06:04.709Z,10.70
2018-10-17T10:08:33.752Z,10.80
2018-10-17T10:11:02.958Z,10.80
2018-10-17T10:13:32.021Z,10.80
2018-10-17T10:16:01.189Z,10.90
2018-10-17T10:18:30.268Z,10.90
2018-10-17T10:20:59.348Z,10.90
2018-10-17T10:23:28.387Z,10.90
2018-10-17T10:25:57.798Z,10.90
2018-10-17T10:28:27.028Z,10.90
2018-10-17T10:30:55.996Z,10.90
2018-10-17T10:33:25.136Z,11.00
2018-10-17T10:35:54.288Z,11.00
2018-10-17T10:38:23.097Z,11.10
2018-10-17T10:40:52.209Z,11.10
2018-10-17T10:43:21.520Z,11.10
2018-10-17T10:45:50.616Z,11.20
2018-10-17T10:48:19.556Z,11.20
2018-10-17T10:50:48.724Z,11.20
2018-10-17T10:53:17.789Z,11.20
2018-10-17T10:55:46.578Z,11.30
2018-10-17T10:58:15.683Z,11.30
2018-10-17T11:00:44.668Z,11.30
2018-10-17T11:03:13.721Z,11.30
2018-10-17T11:05:43.078Z,11.40
2018-10-17T11:08:11.993Z,11.40
2018-10-17T11:10:41.028Z,11.50
2018-10-17T11:13:10.029Z,11.50
2018-10-17T11:15:39.484Z,11.60
2018-10-17T11:18:08.630Z,11.60
2018-10-17T11:20:37.734Z,11.60
2018-10-17T11:23:06.619Z,11.60
2018-10-17T11:25:35.731Z,11.70
2018-10-17T11:28:05.088Z,11.70
2018-10-17T11:30:34.229Z,11.70
2018-10-17T11:33:03.568Z,11.80
2018-10-17T11:35:32.612Z,11.80
2018-10-17T11:38:01.862Z,11.80
2018-10-17T11:40:31.217Z,11.80
2018-10-17T11:43:00.302Z,11.80
2018-10-17T11:45:29.614Z,11.80
2018-10-17T11:47:58.809Z,11.90
2018-10-17T11:50:28.057Z,11.90
2018-10-17T11:52:57.195Z,11.90
2018-10-17T11:55:26.381Z,11.90
2018-10-17T11:57:55.505Z,11.90
2018-10-17T12:00:24.495Z,12.00
2018-10-17T12:02:53.619Z,12.00
2018-10-17T12:05:23.122Z,12.00
2018-10-17T12:07:51.964Z,12.00
2018-10-17T12:10:21.156Z,12.00
2018-10-17T12:12:50.263Z,12.10
2018-10-17T12:15:19.557Z,12.10
2018-10-17T12:17:48.676Z,12.10
2018-10-17T12:20:17.775Z,12.20
2018-10-17T12:22:46.834Z,12.10
2018-10-17T12:25:16.041Z,12.20
2018-10-17T12:27:46.101Z,12.20
2018-10-17T12:30:15.850Z,12.20
2018-10-17T12:32:44.959Z,12.20
2018-10-17T12:35:14.092Z,12.20
2018-10-17T12:37:43.137Z,12.30
2018-10-17T12:40:12.387Z,12.30
2018-10-17T12:42:41.583Z,12.30
2018-10-17T12:45:10.788Z,12.30
2018-10-17T12:47:39.925Z,12.40
2018-10-17T12:50:09.596Z,12.40
2018-10-17T12:52:38.713Z,12.50
2018-10-17T12:55:08.513Z,12.50
2018-10-17T12:57:37.633Z,12.50
2018-10-17T13:00:08.452Z,12.50
2018-10-17T13:02:37.572Z,12.60
2018-10-17T13:05:08.076Z,12.60
2018-10-17T13:07:37.272Z,12.60
2018-10-17T13:10:07.616Z,12.70
2018-10-17T13:12:36.769Z,12.70
2018-10-17T13:15:07.651Z,12.70
2018-10-17T13:17:36.770Z,12.70
2018-10-17T13:20:05.845Z,12.80
2018-10-17T13:22:34.853Z,12.80
2018-10-17T13:25:04.131Z,12.80
2018-10-17T13:27:33.136Z,12.90
2018-10-17T13:30:02.473Z,12.90
2018-10-17T13:32:31.512Z,12.90
2018-10-17T13:35:00.733Z,12.90
2018-10-17T13:37:29.710Z,12.90
2018-10-17T13:39:58.718Z,12.90
2018-10-17T13:42:27.824Z,12.90
2018-10-17T13:44:56.812Z,13.00
2018-10-17T13:47:26.036Z,13.00
2018-10-17T13:49:56.071Z,13.00
2018-10-17T13:52:25.403Z,13.00
2018-10-17T13:54:54.659Z,13.00
2018-10-17T13:57:23.705Z,13.00
2018-10-17T13:59:52.911Z,13.10
2018-10-17T14:02:22.123Z,13.00
2018-10-17T14:04:50.903Z,13.10
2018-10-17T14:07:20.312Z,13.10
2018-10-17T14:09:49.376Z,13.10
2018-10-17T14:12:18.267Z,13.10
2018-10-17T14:14:47.267Z,13.10
2018-10-17T14:17:16.332Z,13.10
2018-10-17T14:19:45.437Z,13.10
2018-10-17T14:22:14.470Z,13.10
2018-10-17T14:24:43.476Z,13.10
2018-10-17T14:27:12.600Z,13.10
2018-10-17T14:29:41.678Z,13.10
2018-10-17T14:32:10.820Z,13.20
2018-10-17T14:34:39.791Z,13.10
2018-10-17T14:37:09.104Z,13.20
2018-10-17T14:39:38.193Z,13.20
2018-10-17T14:42:07.535Z,13.20
2018-10-17T14:44:36.612Z,13.20
2018-10-17T14:47:05.785Z,13.10
2018-10-17T14:49:34.992Z,13.20
2018-10-17T14:52:04.081Z,13.20
2018-10-17T14:54:33.230Z,13.20
2018-10-17T14:57:02.494Z,13.20
2018-10-17T14:59:31.580Z,13.20
2018-10-17T15:02:00.667Z,13.20
2018-10-17T15:04:29.792Z,13.30
2018-10-17T15:06:58.875Z,13.20
2018-10-17T15:09:28.147Z,13.20
2018-10-17T15:11:57.312Z,13.30
2018-10-17T15:14:26.369Z,13.30
2018-10-17T15:16:55.620Z,13.30
2018-10-17T15:19:24.772Z,13.30
2018-10-17T15:21:53.996Z,13.30
2018-10-17T15:24:23.204Z,13.30
2018-10-17T15:26:52.393Z,13.30
2018-10-17T15:29:21.505Z,13.30
2018-10-17T15:31:50.713Z,13.30
2018-10-17T15:34:19.808Z,13.20
2018-10-17T15:36:48.940Z,13.20
2018-10-17T15:39:18.002Z,13.20
2018-10-17T15:41:46.854Z,13.30
2018-10-17T15:44:16.079Z,13.30
2018-10-17T15:46:45.120Z,13.30
2018-10-17T15:49:14.204Z,13.30
2018-10-17T15:51:43.315Z,13.30
2018-10-17T15:54:12.198Z,13.30
2018-10-17T15:56:41.045Z,13.30
2018-10-17T15:59:10.155Z,13.30
2018-10-17T16:01:39.357Z,13.30
2018-10-17T16:04:08.651Z,13.30
2018-10-17T16:06:37.866Z,13.30
2018-10-17T16:09:10.684Z,13.30
2018-10-17T16:11:39.981Z,13.30
2018-10-17T16:14:09.210Z,13.30
2018-10-17T16:16:38.098Z,13.30
2018-10-17T16:19:07.344Z,13.40
2018-10-17T16:21:36.447Z,13.40
2018-10-17T16:24:05.359Z,13.40
2018-10-17T16:26:34.187Z,13.40
2018-10-17T16:29:03.181Z,13.30
2018-10-17T16:31:32.299Z,13.30
2018-10-17T16:34:01.319Z,13.30
2018-10-17T16:36:30.504Z,13.40
2018-10-17T16:38:59.558Z,13.30
2018-10-17T16:41:28.733Z,13.30
2018-10-17T16:43:57.769Z,13.40
2018-10-17T16:46:27.000Z,13.40
2018-10-17T16:48:55.804Z,13.40
2018-10-17T16:51:25.116Z,13.30
2018-10-17T16:53:54.253Z,13.30
2018-10-17T16:56:23.536Z,13.30
2018-10-17T16:58:52.587Z,13.30
2018-10-17T17:01:21.429Z,13.30
2018-10-17T17:03:50.438Z,13.20
2018-10-17T17:06:19.617Z,13.30
2018-10-17T17:08:48.697Z,13.20
2018-10-17T17:11:17.961Z,13.20
2018-10-17T17:13:47.102Z,13.20
2018-10-17T17:16:16.312Z,13.20
2018-10-17T17:18:45.160Z,13.30
2018-10-17T17:21:14.092Z,13.30
2018-10-17T17:23:43.204Z,13.30
2018-10-17T17:26:12.264Z,13.20
2018-10-17T17:28:41.362Z,13.20
2018-10-17T17:31:10.560Z,13.20
2018-10-17T17:33:39.787Z,13.20
2018-10-17T17:36:09.134Z,13.10
2018-10-17T17:38:38.511Z,13.10
2018-10-17T17:41:07.782Z,13.20
2018-10-17T17:43:36.875Z,13.10
2018-10-17T17:46:06.446Z,13.20
2018-10-17T17:48:35.485Z,13.20
2018-10-17T17:51:04.754Z,13.20
2018-10-17T17:53:33.860Z,13.20
2018-10-17T17:56:02.958Z,13.20
2018-10-17T17:58:32.440Z,13.30
2018-10-17T18:01:01.596Z,13.30
2018-10-17T18:03:30.754Z,13.20
2018-10-17T18:05:59.993Z,13.20
2018-10-17T18:08:29.572Z,13.30
2018-10-17T18:11:08.361Z,13.30
2018-10-17T18:13:37.200Z,13.30
2018-10-17T18:16:06.605Z,13.30
2018-10-17T18:18:35.576Z,13.30
2018-10-17T18:21:04.949Z,13.30
2018-10-17T18:23:34.160Z,13.30
2018-10-17T18:26:03.289Z,13.30
2018-10-17T18:28:32.641Z,13.30
2018-10-17T18:31:01.728Z,13.30
2018-10-17T18:33:30.851Z,13.30
2018-10-17T18:35:59.996Z,13.30
2018-10-17T18:38:29.088Z,13.30
2018-10-17T18:40:58.285Z,13.20
2018-10-17T18:43:27.726Z,13.20
2018-10-17T18:45:57.859Z,13.30
2018-10-17T18:48:27.055Z,13.30
2018-10-17T18:50:56.261Z,13.30
2018-10-17T18:53:25.342Z,13.30
2018-10-17T18:55:54.296Z,13.30
2018-10-17T18:58:23.095Z,13.10
2018-10-17T19:00:52.283Z,13.00
2018-10-17T19:03:21.509Z,13.00
2018-10-17T19:05:50.595Z,13.10
2018-10-17T19:08:19.719Z,13.10
2018-10-17T19:10:48.802Z,13.20
2018-10-17T19:13:17.787Z,13.20
2018-10-17T19:15:46.906Z,13.30
2018-10-17T19:18:16.076Z,13.30
2018-10-17T19:20:45.082Z,13.30
2018-10-17T19:23:13.871Z,13.20
2018-10-17T19:25:42.686Z,13.10
2018-10-17T19:28:11.948Z,13.10
2018-10-17T19:30:41.050Z,13.20
2018-10-17T19:33:09.962Z,13.20
2018-10-17T19:35:39.032Z,13.30
2018-10-17T19:38:08.138Z,13.20
2018-10-17T19:40:37.108Z,13.20
2018-10-17T19:43:06.380Z,13.20
2018-10-17T19:45:35.233Z,13.20
2018-10-17T19:48:04.399Z,13.20
2018-10-17T19:50:33.225Z,13.20
2018-10-17T19:53:02.460Z,13.20
2018-10-17T19:55:31.279Z,13.20
2018-10-17T19:58:00.464Z,13.20
2018-10-17T20:00:29.648Z,13.30
2018-10-17T20:02:58.843Z,13.30
2018-10-17T20:05:28.046Z,13.30
2018-10-17T20:07:57.148Z,13.20
2018-10-17T20:10:26.376Z,13.30
2018-10-17T20:12:55.225Z,13.30
2018-10-17T20:15:24.288Z,13.30
2018-10-17T20:17:53.312Z,13.20
2018-10-17T20:20:22.424Z,13.20
2018-10-17T20:22:51.618Z,13.20
2018-10-17T20:25:20.801Z,13.20
2018-10-17T20:27:49.849Z,13.30
2018-10-17T20:30:18.915Z,13.20
2018-10-17T20:32:47.992Z,13.20
2018-10-17T20:35:17.183Z,13.20
2018-10-17T20:37:46.268Z,13.20
2018-10-17T20:40:15.420Z,13.20
2018-10-17T20:42:44.649Z,13.20
2018-10-17T20:45:13.504Z,13.20
2018-10-17T20:47:42.576Z,13.20
2018-10-17T20:50:11.967Z,13.20
2018-10-17T20:52:41.081Z,13.20
2018-10-17T20:55:10.354Z,13.20
2018-10-17T20:57:39.220Z,13.20
2018-10-17T21:00:08.690Z,13.20
2018-10-17T21:02:37.951Z,13.20
2018-10-17T21:05:07.367Z,13.20
2018-10-17T21:07:36.603Z,13.20
2018-10-17T21:10:06.075Z,13.20
2018-10-17T21:12:35.144Z,13.10
2018-10-17T21:15:04.196Z,13.10
2018-10-17T21:17:33.357Z,13.10
2018-10-17T21:20:02.552Z,13.10
2018-10-17T21:22:31.619Z,13.10
2018-10-17T21:25:00.716Z,13.10
2018-10-17T21:27:29.924Z,13.20
2018-10-17T21:29:59.048Z,13.10
2018-10-17T21:32:28.199Z,13.10
2018-10-17T21:34:57.307Z,13.20
2018-10-17T21:37:26.130Z,13.10
2018-10-17T21:39:55.177Z,13.10
2018-10-17T21:42:24.177Z,13.10
2018-10-17T21:44:53.287Z,13.10
2018-10-17T21:47:22.562Z,13.10
2018-10-17T21:49:51.654Z,13.10
2018-10-17T21:52:20.775Z,13.10
2018-10-17T21:54:49.798Z,13.10
2018-10-17T21:57:18.939Z,13.10
2018-10-17T21:59:48.043Z,13.10
2018-10-17T22:02:17.268Z,13.10
2018-10-17T22:04:46.437Z,13.10
2018-10-17T22:07:15.567Z,13.00
2018-10-17T22:09:44.645Z,13.00
2018-10-17T22:12:13.828Z,12.90
2018-10-17T22:14:42.877Z,12.90
2018-10-17T22:17:11.961Z,12.90
2018-10-17T22:19:41.309Z,12.90
2018-10-17T22:22:10.228Z,12.90
2018-10-17T22:24:39.240Z,13.00
2018-10-17T22:27:08.395Z,13.00
2018-10-17T22:29:37.484Z,12.90
2018-10-17T22:32:06.935Z,12.90
2018-10-17T22:34:35.886Z,12.90
2018-10-17T22:37:05.021Z,12.90
2018-10-17T22:39:34.177Z,12.80
2018-10-17T22:42:03.205Z,12.90
2018-10-17T22:44:32.320Z,13.00
2018-10-17T22:47:01.352Z,13.00
2018-10-17T22:49:30.376Z,13.00
2018-10-17T22:51:59.354Z,13.10
2018-10-17T22:54:28.365Z,13.00
2018-10-17T22:56:57.564Z,13.00
2018-10-17T22:59:26.624Z,13.00
2018-10-17T23:01:55.850Z,13.00
2018-10-17T23:04:24.923Z,13.00
2018-10-17T23:06:54.115Z,13.10
2018-10-17T23:09:23.203Z,13.00
2018-10-17T23:11:52.235Z,13.00
2018-10-17T23:14:21.437Z,13.00
2018-10-17T23:16:50.629Z,13.00
2018-10-17T23:19:19.702Z,13.00
2018-10-17T23:21:48.776Z,13.00
2018-10-17T23:24:18.395Z,13.00
2018-10-17T23:26:47.551Z,12.90
2018-10-17T23:29:16.684Z,12.90
2018-10-17T23:31:45.875Z,12.80
2018-10-17T23:34:14.901Z,12.90
2018-10-17T23:36:43.843Z,12.90
2018-10-17T23:39:13.017Z,13.00
2018-10-17T23:41:42.236Z,13.00
2018-10-17T23:44:18.105Z,13.00
2018-10-17T23:46:47.209Z,13.00
2018-10-17T23:49:16.290Z,13.00
2018-10-17T23:51:45.277Z,13.00
2018-10-17T23:54:14.432Z,12.90
2018-10-17T23:56:43.608Z,12.90
2018-10-17T23:59:12.680Z,12.80
